sensor_id;sensor_type;location;lat;lon;timestamp;temperature;humidity
20973;DHT22;10645;52.370;13.314;2022-09-03T00:00:57;11.60;99.90
20973;DHT22;10645;52.370;13.314;2022-09-03T00:03:43;11.50;99.90
20973;DHT22;10645;52.370;13.314;2022-09-03T00:06:23;11.50;99.90
20973;DHT22;10645;52.370;13.314;2022-09-03T00:08:57;11.50;99.90
20973;DHT22;10645;52.370;13.314;2022-09-03T00:11:30;11.50;99.90
20973;DHT22;10645;52.370;13.314;2022-09-03T00:14:12;11.50;99.90
20973;DHT22;10645;52.370;13.314;2022-09-03T00:16:54;11.50;99.90
20973;DHT22;10645;52.370;13.314;2022-09-03T00:19:26;11.40;99.90
20973;DHT22;10645;52.370;13.314;2022-09-03T00:22:01;11.40;99.90
20973;DHT22;10645;52.370;13.314;2022-09-03T00:24:31;11.30;99.90
20973;DHT22;10645;52.370;13.314;2022-09-03T00:27:02;11.30;99.90
20973;DHT22;10645;52.370;13.314;2022-09-03T00:29:35;11.20;99.90
20973;DHT22;10645;52.370;13.314;2022-09-03T00:32:12;11.20;99.90
20973;DHT22;10645;52.370;13.314;2022-09-03T00:34:42;11.20;99.90
20973;DHT22;10645;52.370;13.314;2022-09-03T00:37:11;11.20;99.90
20973;DHT22;10645;52.370;13.314;2022-09-03T00:39:37;11.20;99.90
20973;DHT22;10645;52.370;13.314;2022-09-03T00:42:13;11.20;99.90
20973;DHT22;10645;52.370;13.314;2022-09-03T00:45:12;11.10;99.90
20973;DHT22;10645;52.370;13.314;2022-09-03T00:51:14;11.00;99.90
20973;DHT22;10645;52.370;13.314;2022-09-03T00:53:50;11.00;99.90
20973;DHT22;10645;52.370;13.314;2022-09-03T01:01:27;11.00;99.90
20973;DHT22;10645;52.370;13.314;2022-09-03T01:04:41;11.00;99.90
20973;DHT22;10645;52.370;13.314;2022-09-03T01:06:56;10.90;99.90
20973;DHT22;10645;52.370;13.314;2022-09-03T01:12:15;10.70;99.90
20973;DHT22;10645;52.370;13.314;2022-09-03T01:14:53;10.60;99.90
20973;DHT22;10645;52.370;13.314;2022-09-03T01:18:01;10.50;99.90
20973;DHT22;10645;52.370;13.314;2022-09-03T01:23:42;10.30;99.90
20973;DHT22;10645;52.370;13.314;2022-09-03T01:32:00;10.30;99.90
20973;DHT22;10645;52.370;13.314;2022-09-03T01:37:24;10.30;99.90
20973;DHT22;10645;52.370;13.314;2022-09-03T01:40:04;10.30;99.90
20973;DHT22;10645;52.370;13.314;2022-09-03T01:48:26;10.40;99.90
20973;DHT22;10645;52.370;13.314;2022-09-03T01:50:57;10.40;99.90
20973;DHT22;10645;52.370;13.314;2022-09-03T01:53:39;10.30;99.90
20973;DHT22;10645;52.370;13.314;2022-09-03T01:56:36;10.30;99.90
20973;DHT22;10645;52.370;13.314;2022-09-03T01:59:17;10.20;99.90
20973;DHT22;10645;52.370;13.314;2022-09-03T02:01:55;10.20;99.90
20973;DHT22;10645;52.370;13.314;2022-09-03T02:04:25;10.20;99.90
20973;DHT22;10645;52.370;13.314;2022-09-03T02:06:53;10.10;99.90
20973;DHT22;10645;52.370;13.314;2022-09-03T02:09:22;10.10;99.90
20973;DHT22;10645;52.370;13.314;2022-09-03T02:11:58;10.10;99.90
20973;DHT22;10645;52.370;13.314;2022-09-03T02:14:27;10.00;99.90
20973;DHT22;10645;52.370;13.314;2022-09-03T02:16:55;10.00;99.90
20973;DHT22;10645;52.370;13.314;2022-09-03T02:19:22;10.00;99.90
20973;DHT22;10645;52.370;13.314;2022-09-03T02:21:51;10.10;99.90
20973;DHT22;10645;52.370;13.314;2022-09-03T02:24:17;10.10;99.90
20973;DHT22;10645;52.370;13.314;2022-09-03T02:26:44;10.10;99.90
20973;DHT22;10645;52.370;13.314;2022-09-03T02:29:13;10.10;99.90
20973;DHT22;10645;52.370;13.314;2022-09-03T02:31:40;10.10;99.90
20973;DHT22;10645;52.370;13.314;2022-09-03T02:34:06;10.20;99.90
20973;DHT22;10645;52.370;13.314;2022-09-03T02:36:38;10.20;99.90
20973;DHT22;10645;52.370;13.314;2022-09-03T02:39:05;10.10;99.90
20973;DHT22;10645;52.370;13.314;2022-09-03T02:41:32;10.10;99.90
20973;DHT22;10645;52.370;13.314;2022-09-03T02:46:51;10.10;99.90
20973;DHT22;10645;52.370;13.314;2022-09-03T02:49:18;10.20;99.90
20973;DHT22;10645;52.370;13.314;2022-09-03T02:51:44;10.10;99.90
20973;DHT22;10645;52.370;13.314;2022-09-03T02:54:11;10.10;99.90
20973;DHT22;10645;52.370;13.314;2022-09-03T02:56:37;10.20;99.90
20973;DHT22;10645;52.370;13.314;2022-09-03T02:59:05;10.20;99.90
20973;DHT22;10645;52.370;13.314;2022-09-03T03:01:31;10.20;99.90
20973;DHT22;10645;52.370;13.314;2022-09-03T03:03:58;10.20;99.90
20973;DHT22;10645;52.370;13.314;2022-09-03T03:06:24;10.20;99.90
20973;DHT22;10645;52.370;13.314;2022-09-03T03:08:51;10.30;99.90
20973;DHT22;10645;52.370;13.314;2022-09-03T03:11:17;10.20;99.90
20973;DHT22;10645;52.370;13.314;2022-09-03T03:13:45;10.20;99.90
20973;DHT22;10645;52.370;13.314;2022-09-03T03:16:13;10.20;99.90
20973;DHT22;10645;52.370;13.314;2022-09-03T03:18:39;10.20;99.90
20973;DHT22;10645;52.370;13.314;2022-09-03T03:21:10;10.10;99.90
20973;DHT22;10645;52.370;13.314;2022-09-03T03:23:37;10.20;99.90
20973;DHT22;10645;52.370;13.314;2022-09-03T03:26:06;10.30;99.90
20973;DHT22;10645;52.370;13.314;2022-09-03T03:28:33;10.20;99.90
20973;DHT22;10645;52.370;13.314;2022-09-03T03:31:07;10.10;99.90
20973;DHT22;10645;52.370;13.314;2022-09-03T03:33:34;10.10;99.90
20973;DHT22;10645;52.370;13.314;2022-09-03T03:36:12;10.20;99.90
20973;DHT22;10645;52.370;13.314;2022-09-03T03:38:39;10.30;99.90
20973;DHT22;10645;52.370;13.314;2022-09-03T03:41:17;10.30;99.90
20973;DHT22;10645;52.370;13.314;2022-09-03T03:43:44;10.40;99.90
20973;DHT22;10645;52.370;13.314;2022-09-03T03:46:11;10.40;99.90
20973;DHT22;10645;52.370;13.314;2022-09-03T03:48:37;10.60;99.90
20973;DHT22;10645;52.370;13.314;2022-09-03T03:51:06;10.70;99.90
20973;DHT22;10645;52.370;13.314;2022-09-03T03:53:34;10.80;99.90
20973;DHT22;10645;52.370;13.314;2022-09-03T03:56:02;10.80;99.90
20973;DHT22;10645;52.370;13.314;2022-09-03T03:58:29;10.80;99.90
20973;DHT22;10645;52.370;13.314;2022-09-03T04:01:04;10.90;99.90
20973;DHT22;10645;52.370;13.314;2022-09-03T04:03:30;10.90;99.90
20973;DHT22;10645;52.370;13.314;2022-09-03T04:05:57;11.00;99.90
20973;DHT22;10645;52.370;13.314;2022-09-03T04:08:25;11.00;99.90
20973;DHT22;10645;52.370;13.314;2022-09-03T04:10:51;11.00;99.90
20973;DHT22;10645;52.370;13.314;2022-09-03T04:13:18;11.10;99.90
20973;DHT22;10645;52.370;13.314;2022-09-03T04:15:44;11.10;99.90
20973;DHT22;10645;52.370;13.314;2022-09-03T04:18:10;11.10;99.90
20973;DHT22;10645;52.370;13.314;2022-09-03T04:20:37;11.10;99.90
20973;DHT22;10645;52.370;13.314;2022-09-03T04:23:04;11.10;99.90
20973;DHT22;10645;52.370;13.314;2022-09-03T04:25:31;11.10;99.90
20973;DHT22;10645;52.370;13.314;2022-09-03T04:27:57;11.10;99.90
20973;DHT22;10645;52.370;13.314;2022-09-03T04:30:23;11.10;99.90
20973;DHT22;10645;52.370;13.314;2022-09-03T04:32:49;11.20;99.90
20973;DHT22;10645;52.370;13.314;2022-09-03T04:35:19;11.20;99.90
20973;DHT22;10645;52.370;13.314;2022-09-03T04:37:46;11.20;99.90
20973;DHT22;10645;52.370;13.314;2022-09-03T04:40:12;11.20;99.90
20973;DHT22;10645;52.370;13.314;2022-09-03T04:42:38;11.20;99.90
20973;DHT22;10645;52.370;13.314;2022-09-03T04:45:05;11.20;99.90
20973;DHT22;10645;52.370;13.314;2022-09-03T04:47:31;11.30;99.90
20973;DHT22;10645;52.370;13.314;2022-09-03T04:49:58;11.30;99.90
20973;DHT22;10645;52.370;13.314;2022-09-03T04:52:24;11.30;99.90
20973;DHT22;10645;52.370;13.314;2022-09-03T04:54:50;11.30;99.90
20973;DHT22;10645;52.370;13.314;2022-09-03T04:57:16;11.40;99.90
20973;DHT22;10645;52.370;13.314;2022-09-03T04:59:42;11.40;99.90
20973;DHT22;10645;52.370;13.314;2022-09-03T05:02:09;11.40;99.90
20973;DHT22;10645;52.370;13.314;2022-09-03T05:04:35;11.40;99.90
20973;DHT22;10645;52.370;13.314;2022-09-03T05:07:01;11.50;99.90
20973;DHT22;10645;52.370;13.314;2022-09-03T05:09:27;11.50;99.90
20973;DHT22;10645;52.370;13.314;2022-09-03T05:11:53;11.50;99.90
20973;DHT22;10645;52.370;13.314;2022-09-03T05:14:20;11.50;99.90
20973;DHT22;10645;52.370;13.314;2022-09-03T05:16:46;11.60;99.90
20973;DHT22;10645;52.370;13.314;2022-09-03T05:19:12;11.70;99.90
20973;DHT22;10645;52.370;13.314;2022-09-03T05:21:38;11.70;99.90
20973;DHT22;10645;52.370;13.314;2022-09-03T05:24:04;11.80;99.90
20973;DHT22;10645;52.370;13.314;2022-09-03T05:26:37;11.80;99.90
20973;DHT22;10645;52.370;13.314;2022-09-03T05:29:05;11.90;99.90
20973;DHT22;10645;52.370;13.314;2022-09-03T05:31:37;12.00;99.90
20973;DHT22;10645;52.370;13.314;2022-09-03T05:34:04;12.00;99.90
20973;DHT22;10645;52.370;13.314;2022-09-03T05:36:33;12.10;99.90
20973;DHT22;10645;52.370;13.314;2022-09-03T05:39:01;12.10;99.90
20973;DHT22;10645;52.370;13.314;2022-09-03T05:41:28;12.10;99.90
20973;DHT22;10645;52.370;13.314;2022-09-03T05:43:55;12.20;99.90
20973;DHT22;10645;52.370;13.314;2022-09-03T05:46:22;12.30;99.90
20973;DHT22;10645;52.370;13.314;2022-09-03T05:48:52;12.30;99.90
20973;DHT22;10645;52.370;13.314;2022-09-03T05:51:18;12.40;99.90
20973;DHT22;10645;52.370;13.314;2022-09-03T05:53:46;12.50;99.90
20973;DHT22;10645;52.370;13.314;2022-09-03T05:56:16;12.50;99.90
20973;DHT22;10645;52.370;13.314;2022-09-03T05:58:45;12.60;99.90
20973;DHT22;10645;52.370;13.314;2022-09-03T06:01:13;12.60;99.90
20973;DHT22;10645;52.370;13.314;2022-09-03T06:03:40;12.70;99.90
20973;DHT22;10645;52.370;13.314;2022-09-03T06:06:08;12.80;99.90
20973;DHT22;10645;52.370;13.314;2022-09-03T06:08:35;12.80;99.90
20973;DHT22;10645;52.370;13.314;2022-09-03T06:11:03;12.90;99.90
20973;DHT22;10645;52.370;13.314;2022-09-03T06:13:31;13.00;99.90
20973;DHT22;10645;52.370;13.314;2022-09-03T06:16:03;13.00;99.90
20973;DHT22;10645;52.370;13.314;2022-09-03T06:18:30;13.00;99.90
20973;DHT22;10645;52.370;13.314;2022-09-03T06:21:00;13.10;99.90
20973;DHT22;10645;52.370;13.314;2022-09-03T06:23:29;13.20;99.90
20973;DHT22;10645;52.370;13.314;2022-09-03T06:26:09;13.30;99.90
20973;DHT22;10645;52.370;13.314;2022-09-03T06:28:38;13.30;99.90
20973;DHT22;10645;52.370;13.314;2022-09-03T06:31:07;13.50;99.90
20973;DHT22;10645;52.370;13.314;2022-09-03T06:33:35;13.50;99.90
20973;DHT22;10645;52.370;13.314;2022-09-03T06:36:06;13.60;99.90
20973;DHT22;10645;52.370;13.314;2022-09-03T06:38:34;13.70;99.90
20973;DHT22;10645;52.370;13.314;2022-09-03T06:41:02;13.70;99.90
20973;DHT22;10645;52.370;13.314;2022-09-03T06:43:31;13.80;99.90
20973;DHT22;10645;52.370;13.314;2022-09-03T06:46:03;13.90;99.90
20973;DHT22;10645;52.370;13.314;2022-09-03T06:48:30;13.90;99.90
20973;DHT22;10645;52.370;13.314;2022-09-03T06:50:59;14.00;99.90
20973;DHT22;10645;52.370;13.314;2022-09-03T06:53:30;14.00;99.90
20973;DHT22;10645;52.370;13.314;2022-09-03T06:56:02;14.00;99.90
20973;DHT22;10645;52.370;13.314;2022-09-03T06:58:33;14.00;99.90
20973;DHT22;10645;52.370;13.314;2022-09-03T07:01:04;14.10;99.90
20973;DHT22;10645;52.370;13.314;2022-09-03T07:03:32;14.20;99.90
20973;DHT22;10645;52.370;13.314;2022-09-03T07:06:09;14.20;99.90
20973;DHT22;10645;52.370;13.314;2022-09-03T07:08:36;14.30;99.90
20973;DHT22;10645;52.370;13.314;2022-09-03T07:11:04;14.40;99.90
20973;DHT22;10645;52.370;13.314;2022-09-03T07:13:31;14.50;99.90
20973;DHT22;10645;52.370;13.314;2022-09-03T07:16:09;14.40;99.90
20973;DHT22;10645;52.370;13.314;2022-09-03T07:18:36;14.60;99.90
20973;DHT22;10645;52.370;13.314;2022-09-03T07:21:08;14.60;99.90
20973;DHT22;10645;52.370;13.314;2022-09-03T07:23:35;14.70;99.90
20973;DHT22;10645;52.370;13.314;2022-09-03T07:26:04;14.70;99.90
20973;DHT22;10645;52.370;13.314;2022-09-03T07:28:31;14.90;99.90
20973;DHT22;10645;52.370;13.314;2022-09-03T07:31:04;15.00;99.90
20973;DHT22;10645;52.370;13.314;2022-09-03T07:33:31;15.20;99.90
20973;DHT22;10645;52.370;13.314;2022-09-03T07:36:09;15.20;99.90
20973;DHT22;10645;52.370;13.314;2022-09-03T07:38:37;15.40;99.90
20973;DHT22;10645;52.370;13.314;2022-09-03T07:41:05;15.40;99.90
20973;DHT22;10645;52.370;13.314;2022-09-03T07:43:36;15.50;99.90
20973;DHT22;10645;52.370;13.314;2022-09-03T07:46:06;15.60;99.90
20973;DHT22;10645;52.370;13.314;2022-09-03T07:48:32;15.50;99.90
20973;DHT22;10645;52.370;13.314;2022-09-03T07:50:59;15.70;99.90
20973;DHT22;10645;52.370;13.314;2022-09-03T07:53:28;15.80;99.90
20973;DHT22;10645;52.370;13.314;2022-09-03T07:56:10;15.90;99.90
20973;DHT22;10645;52.370;13.314;2022-09-03T07:58:37;16.00;99.90
20973;DHT22;10645;52.370;13.314;2022-09-03T08:01:14;16.10;99.90
20973;DHT22;10645;52.370;13.314;2022-09-03T08:03:48;16.20;99.90
20973;DHT22;10645;52.370;13.314;2022-09-03T08:06:17;16.20;99.90
20973;DHT22;10645;52.370;13.314;2022-09-03T08:08:44;16.20;99.90
20973;DHT22;10645;52.370;13.314;2022-09-03T08:11:13;16.30;99.90
20973;DHT22;10645;52.370;13.314;2022-09-03T08:13:41;16.30;99.90
20973;DHT22;10645;52.370;13.314;2022-09-03T08:16:08;16.50;99.90
20973;DHT22;10645;52.370;13.314;2022-09-03T08:18:35;16.70;99.90
20973;DHT22;10645;52.370;13.314;2022-09-03T08:21:09;16.90;99.90
20973;DHT22;10645;52.370;13.314;2022-09-03T08:23:38;17.20;99.90
20973;DHT22;10645;52.370;13.314;2022-09-03T08:26:05;17.40;99.90
20973;DHT22;10645;52.370;13.314;2022-09-03T08:28:33;17.60;99.90
20973;DHT22;10645;52.370;13.314;2022-09-03T08:31:10;17.90;99.90
20973;DHT22;10645;52.370;13.314;2022-09-03T08:33:37;18.10;99.90
20973;DHT22;10645;52.370;13.314;2022-09-03T08:36:17;18.30;99.90
20973;DHT22;10645;52.370;13.314;2022-09-03T08:38:45;18.40;99.90
20973;DHT22;10645;52.370;13.314;2022-09-03T08:41:22;18.40;99.90
20973;DHT22;10645;52.370;13.314;2022-09-03T08:49:11;18.70;99.90
20973;DHT22;10645;52.370;13.314;2022-09-03T08:51:39;18.90;99.90
20973;DHT22;10645;52.370;13.314;2022-09-03T08:54:08;18.80;99.90
20973;DHT22;10645;52.370;13.314;2022-09-03T08:56:38;18.90;99.90
20973;DHT22;10645;52.370;13.314;2022-09-03T08:59:05;19.00;99.90
20973;DHT22;10645;52.370;13.314;2022-09-03T09:01:56;19.30;99.90
20973;DHT22;10645;52.370;13.314;2022-09-03T09:07:36;19.60;99.90
20973;DHT22;10645;52.370;13.314;2022-09-03T09:10:21;19.60;99.90
20973;DHT22;10645;52.370;13.314;2022-09-03T09:19:09;19.80;99.90
20973;DHT22;10645;52.370;13.314;2022-09-03T09:21:32;19.80;99.90
20973;DHT22;10645;52.370;13.314;2022-09-03T09:24:06;19.90;99.90
20973;DHT22;10645;52.370;13.314;2022-09-03T09:26:39;20.10;99.90
20973;DHT22;10645;52.370;13.314;2022-09-03T09:29:08;20.30;99.90
20973;DHT22;10645;52.370;13.314;2022-09-03T09:31:37;20.50;98.70
20973;DHT22;10645;52.370;13.314;2022-09-03T09:34:04;20.70;98.20
20973;DHT22;10645;52.370;13.314;2022-09-03T09:36:46;20.70;98.70
20973;DHT22;10645;52.370;13.314;2022-09-03T09:39:13;20.70;99.90
20973;DHT22;10645;52.370;13.314;2022-09-03T09:41:41;20.80;98.90
20973;DHT22;10645;52.370;13.314;2022-09-03T09:44:18;20.90;96.70
20973;DHT22;10645;52.370;13.314;2022-09-03T09:46:44;21.00;97.30
20973;DHT22;10645;52.370;13.314;2022-09-03T09:49:35;21.20;98.20
20973;DHT22;10645;52.370;13.314;2022-09-03T09:52:11;21.30;96.70
20973;DHT22;10645;52.370;13.314;2022-09-03T09:54:38;21.30;96.60
20973;DHT22;10645;52.370;13.314;2022-09-03T09:57:06;21.20;96.00
20973;DHT22;10645;52.370;13.314;2022-09-03T09:59:34;21.40;96.00
20973;DHT22;10645;52.370;13.314;2022-09-03T10:04:40;21.10;95.20
20973;DHT22;10645;52.370;13.314;2022-09-03T10:07:31;20.90;96.30
20973;DHT22;10645;52.370;13.314;2022-09-03T10:10:05;21.00;94.90
20973;DHT22;10645;52.370;13.314;2022-09-03T10:12:39;21.30;94.70
20973;DHT22;10645;52.370;13.314;2022-09-03T10:15:22;21.30;94.10
20973;DHT22;10645;52.370;13.314;2022-09-03T10:18:09;21.30;95.00
20973;DHT22;10645;52.370;13.314;2022-09-03T10:21:00;21.20;94.30
20973;DHT22;10645;52.370;13.314;2022-09-03T10:23:34;21.10;93.30
20973;DHT22;10645;52.370;13.314;2022-09-03T10:26:13;21.10;93.80
20973;DHT22;10645;52.370;13.314;2022-09-03T10:28:42;21.40;94.20
20973;DHT22;10645;52.370;13.314;2022-09-03T10:34:14;22.40;92.60
20973;DHT22;10645;52.370;13.314;2022-09-03T10:39:46;22.00;89.60
20973;DHT22;10645;52.370;13.314;2022-09-03T10:42:40;21.70;87.80
20973;DHT22;10645;52.370;13.314;2022-09-03T10:51:23;21.60;89.90
20973;DHT22;10645;52.370;13.314;2022-09-03T10:56:37;22.00;86.70
20973;DHT22;10645;52.370;13.314;2022-09-03T11:05:21;23.40;81.70
20973;DHT22;10645;52.370;13.314;2022-09-03T11:08:00;23.20;81.90
20973;DHT22;10645;52.370;13.314;2022-09-03T11:10:30;23.10;81.20
20973;DHT22;10645;52.370;13.314;2022-09-03T11:13:09;23.30;82.80
20973;DHT22;10645;52.370;13.314;2022-09-03T11:15:54;23.40;83.30
20973;DHT22;10645;52.370;13.314;2022-09-03T11:20:48;23.50;83.50
20973;DHT22;10645;52.370;13.314;2022-09-03T11:23:16;23.60;79.70
20973;DHT22;10645;52.370;13.314;2022-09-03T11:25:50;23.50;81.50
20973;DHT22;10645;52.370;13.314;2022-09-03T11:34:13;23.00;81.10
20973;DHT22;10645;52.370;13.314;2022-09-03T11:36:40;22.60;79.70
20973;DHT22;10645;52.370;13.314;2022-09-03T11:39:23;22.60;84.10
20973;DHT22;10645;52.370;13.314;2022-09-03T11:42:02;23.10;82.30
20973;DHT22;10645;52.370;13.314;2022-09-03T11:44:37;23.30;82.70
20973;DHT22;10645;52.370;13.314;2022-09-03T11:49:52;22.80;81.70
20973;DHT22;10645;52.370;13.314;2022-09-03T11:52:29;22.90;82.30
20973;DHT22;10645;52.370;13.314;2022-09-03T11:54:57;23.00;81.80
20973;DHT22;10645;52.370;13.314;2022-09-03T11:57:30;22.80;83.40
20973;DHT22;10645;52.370;13.314;2022-09-03T12:00:29;22.50;85.30
20973;DHT22;10645;52.370;13.314;2022-09-03T12:03:00;22.90;83.70
20973;DHT22;10645;52.370;13.314;2022-09-03T12:05:41;23.10;81.80
20973;DHT22;10645;52.370;13.314;2022-09-03T12:08:27;22.90;80.90
20973;DHT22;10645;52.370;13.314;2022-09-03T12:13:47;22.30;83.00
20973;DHT22;10645;52.370;13.314;2022-09-03T12:16:31;22.00;82.70
20973;DHT22;10645;52.370;13.314;2022-09-03T12:19:09;22.10;80.90
20973;DHT22;10645;52.370;13.314;2022-09-03T12:21:37;22.00;83.30
20973;DHT22;10645;52.370;13.314;2022-09-03T12:24:03;21.80;82.90
20973;DHT22;10645;52.370;13.314;2022-09-03T12:26:38;21.70;83.30
20973;DHT22;10645;52.370;13.314;2022-09-03T12:29:05;21.60;84.10
20973;DHT22;10645;52.370;13.314;2022-09-03T12:31:42;21.90;85.90
20973;DHT22;10645;52.370;13.314;2022-09-03T12:34:13;22.40;84.10
20973;DHT22;10645;52.370;13.314;2022-09-03T12:36:42;23.00;84.50
20973;DHT22;10645;52.370;13.314;2022-09-03T12:39:12;23.50;83.20
20973;DHT22;10645;52.370;13.314;2022-09-03T12:42:03;24.00;79.50
20973;DHT22;10645;52.370;13.314;2022-09-03T12:44:32;24.30;80.00
20973;DHT22;10645;52.370;13.314;2022-09-03T12:47:10;24.40;79.10
20973;DHT22;10645;52.370;13.314;2022-09-03T12:49:44;24.30;77.50
20973;DHT22;10645;52.370;13.314;2022-09-03T12:52:32;24.10;77.00
20973;DHT22;10645;52.370;13.314;2022-09-03T12:55:16;23.90;78.10
20973;DHT22;10645;52.370;13.314;2022-09-03T12:57:51;24.00;78.60
20973;DHT22;10645;52.370;13.314;2022-09-03T13:00:26;23.90;78.20
20973;DHT22;10645;52.370;13.314;2022-09-03T13:03:06;23.80;80.70
20973;DHT22;10645;52.370;13.314;2022-09-03T13:05:40;23.80;79.40
20973;DHT22;10645;52.370;13.314;2022-09-03T13:08:09;23.70;80.20
20973;DHT22;10645;52.370;13.314;2022-09-03T13:10:40;23.60;79.10
20973;DHT22;10645;52.370;13.314;2022-09-03T13:13:22;23.50;79.30
20973;DHT22;10645;52.370;13.314;2022-09-03T13:24:26;23.40;81.00
20973;DHT22;10645;52.370;13.314;2022-09-03T13:32:46;23.30;79.50
20973;DHT22;10645;52.370;13.314;2022-09-03T13:37:57;23.40;79.70
20973;DHT22;10645;52.370;13.314;2022-09-03T13:40:35;23.30;80.00
20973;DHT22;10645;52.370;13.314;2022-09-03T13:43:29;23.10;81.00
20973;DHT22;10645;52.370;13.314;2022-09-03T13:48:39;22.40;80.20
20973;DHT22;10645;52.370;13.314;2022-09-03T13:51:50;22.20;81.10
20973;DHT22;10645;52.370;13.314;2022-09-03T13:54:26;22.20;83.70
20973;DHT22;10645;52.370;13.314;2022-09-03T13:57:03;22.30;80.10
20973;DHT22;10645;52.370;13.314;2022-09-03T13:59:33;22.40;82.80
20973;DHT22;10645;52.370;13.314;2022-09-03T14:02:15;22.50;82.60
20973;DHT22;10645;52.370;13.314;2022-09-03T14:07:41;22.70;81.60
20973;DHT22;10645;52.370;13.314;2022-09-03T14:13:16;22.60;80.10
20973;DHT22;10645;52.370;13.314;2022-09-03T14:16:12;22.40;81.70
20973;DHT22;10645;52.370;13.314;2022-09-03T14:19:00;22.50;82.40
20973;DHT22;10645;52.370;13.314;2022-09-03T14:21:44;22.60;80.80
20973;DHT22;10645;52.370;13.314;2022-09-03T14:27:09;22.50;82.20
20973;DHT22;10645;52.370;13.314;2022-09-03T14:29:36;22.60;81.70
20973;DHT22;10645;52.370;13.314;2022-09-03T14:32:49;22.50;82.40
20973;DHT22;10645;52.370;13.314;2022-09-03T14:41:04;22.30;82.80
20973;DHT22;10645;52.370;13.314;2022-09-03T14:46:50;22.10;82.10
20973;DHT22;10645;52.370;13.314;2022-09-03T14:52:21;22.00;82.80
20973;DHT22;10645;52.370;13.314;2022-09-03T14:57:42;21.80;80.80
20973;DHT22;10645;52.370;13.314;2022-09-03T15:09:01;21.40;83.40
20973;DHT22;10645;52.370;13.314;2022-09-03T15:11:31;21.50;82.60
20973;DHT22;10645;52.370;13.314;2022-09-03T15:14:12;21.40;86.40
20973;DHT22;10645;52.370;13.314;2022-09-03T15:17:06;21.40;84.50
20973;DHT22;10645;52.370;13.314;2022-09-03T15:19:52;21.40;85.50
20973;DHT22;10645;52.370;13.314;2022-09-03T15:22:25;21.40;85.80
20973;DHT22;10645;52.370;13.314;2022-09-03T15:27:50;21.40;83.30
20973;DHT22;10645;52.370;13.314;2022-09-03T15:30:19;21.30;84.80
20973;DHT22;10645;52.370;13.314;2022-09-03T15:38:09;21.30;83.50
20973;DHT22;10645;52.370;13.314;2022-09-03T15:43:28;21.10;84.80
20973;DHT22;10645;52.370;13.314;2022-09-03T15:46:01;21.10;84.90
20973;DHT22;10645;52.370;13.314;2022-09-03T15:51:22;21.00;85.30
20973;DHT22;10645;52.370;13.314;2022-09-03T15:54:00;20.90;86.70
20973;DHT22;10645;52.370;13.314;2022-09-03T15:56:49;21.00;85.80
20973;DHT22;10645;52.370;13.314;2022-09-03T15:59:22;21.00;85.20
20973;DHT22;10645;52.370;13.314;2022-09-03T16:01:56;21.00;86.90
20973;DHT22;10645;52.370;13.314;2022-09-03T16:04:34;21.00;83.80
20973;DHT22;10645;52.370;13.314;2022-09-03T16:07:17;21.00;84.10
20973;DHT22;10645;52.370;13.314;2022-09-03T16:10:01;21.00;85.30
20973;DHT22;10645;52.370;13.314;2022-09-03T16:15:24;20.70;86.00
20973;DHT22;10645;52.370;13.314;2022-09-03T16:18:31;20.70;85.50
20973;DHT22;10645;52.370;13.314;2022-09-03T16:21:13;20.60;87.20
20973;DHT22;10645;52.370;13.314;2022-09-03T16:23:57;20.50;88.10
20973;DHT22;10645;52.370;13.314;2022-09-03T16:29:16;20.40;89.10
20973;DHT22;10645;52.370;13.314;2022-09-03T16:32:07;20.40;88.50
20973;DHT22;10645;52.370;13.314;2022-09-03T16:35:06;20.40;87.60
20973;DHT22;10645;52.370;13.314;2022-09-03T16:43:23;20.20;88.90
20973;DHT22;10645;52.370;13.314;2022-09-03T16:46:27;20.20;89.40
20973;DHT22;10645;52.370;13.314;2022-09-03T16:49:39;20.10;90.00
20973;DHT22;10645;52.370;13.314;2022-09-03T16:55:00;20.10;88.60
20973;DHT22;10645;52.370;13.314;2022-09-03T17:04:04;20.00;89.20
20973;DHT22;10645;52.370;13.314;2022-09-03T17:06:46;19.80;89.40
20973;DHT22;10645;52.370;13.314;2022-09-03T17:12:35;19.70;90.70
20973;DHT22;10645;52.370;13.314;2022-09-03T17:15:43;19.60;90.70
20973;DHT22;10645;52.370;13.314;2022-09-03T17:21:24;19.30;90.70
20973;DHT22;10645;52.370;13.314;2022-09-03T17:24:04;19.20;90.90
20973;DHT22;10645;52.370;13.314;2022-09-03T17:26:49;19.30;90.50
20973;DHT22;10645;52.370;13.314;2022-09-03T17:29:45;19.20;91.30
20973;DHT22;10645;52.370;13.314;2022-09-03T17:32:37;19.20;90.90
20973;DHT22;10645;52.370;13.314;2022-09-03T17:35:40;19.10;91.10
20973;DHT22;10645;52.370;13.314;2022-09-03T17:44:16;18.80;91.70
20973;DHT22;10645;52.370;13.314;2022-09-03T17:47:16;18.70;91.90
20973;DHT22;10645;52.370;13.314;2022-09-03T17:49:51;18.60;92.20
20973;DHT22;10645;52.370;13.314;2022-09-03T17:52:42;18.50;92.50
20973;DHT22;10645;52.370;13.314;2022-09-03T17:55:34;18.40;92.30
20973;DHT22;10645;52.370;13.314;2022-09-03T17:58:21;18.30;92.80
20973;DHT22;10645;52.370;13.314;2022-09-03T18:03:49;18.30;92.40
20973;DHT22;10645;52.370;13.314;2022-09-03T18:06:25;18.20;93.10
20973;DHT22;10645;52.370;13.314;2022-09-03T18:09:05;18.10;93.00
20973;DHT22;10645;52.370;13.314;2022-09-03T18:11:38;18.10;93.10
20973;DHT22;10645;52.370;13.314;2022-09-03T18:14:21;18.10;92.80
20973;DHT22;10645;52.370;13.314;2022-09-03T18:16:51;18.10;93.20
20973;DHT22;10645;52.370;13.314;2022-09-03T18:19:26;18.10;93.10
20973;DHT22;10645;52.370;13.314;2022-09-03T18:21:59;18.10;93.30
20973;DHT22;10645;52.370;13.314;2022-09-03T18:24:53;18.00;94.10
20973;DHT22;10645;52.370;13.314;2022-09-03T18:27:45;17.90;93.70
20973;DHT22;10645;52.370;13.314;2022-09-03T18:30:32;17.90;93.60
20973;DHT22;10645;52.370;13.314;2022-09-03T18:33:21;17.90;93.60
20973;DHT22;10645;52.370;13.314;2022-09-03T18:36:07;17.90;93.40
20973;DHT22;10645;52.370;13.314;2022-09-03T18:38:52;17.90;93.60
20973;DHT22;10645;52.370;13.314;2022-09-03T18:41:51;17.90;93.80
20973;DHT22;10645;52.370;13.314;2022-09-03T18:45:15;17.90;93.90
20973;DHT22;10645;52.370;13.314;2022-09-03T18:48:14;17.90;93.50
20973;DHT22;10645;52.370;13.314;2022-09-03T18:51:28;18.00;93.60
20973;DHT22;10645;52.370;13.314;2022-09-03T18:57:20;17.90;93.90
20973;DHT22;10645;52.370;13.314;2022-09-03T19:00:14;17.90;93.40
20973;DHT22;10645;52.370;13.314;2022-09-03T19:06:24;17.60;94.40
20973;DHT22;10645;52.370;13.314;2022-09-03T19:12:10;17.50;94.40
20973;DHT22;10645;52.370;13.314;2022-09-03T19:15:08;17.40;94.50